createdAt,value
2022-09-15T00:00:09.345Z,19.25
2022-09-15T00:02:36.307Z,19.36
2022-09-15T00:05:04.326Z,19.34
2022-09-15T00:07:31.465Z,19.31
2022-09-15T00:09:58.053Z,19.20
2022-09-15T00:12:25.057Z,19.24
2022-09-15T00:14:51.661Z,19.30
2022-09-15T00:17:18.368Z,19.26
2022-09-15T00:19:45.008Z,19.15
2022-09-15T00:22:11.797Z,19.20
2022-09-15T00:24:38.761Z,19.21
2022-09-15T00:27:05.321Z,19.14
2022-09-15T00:29:31.904Z,19.23
2022-09-15T00:31:58.572Z,19.33
2022-09-15T00:34:25.153Z,19.32
2022-09-15T00:36:51.751Z,19.28
2022-09-15T00:39:18.343Z,19.29
2022-09-15T00:41:44.930Z,19.16
2022-09-15T00:44:14.259Z,19.16
2022-09-15T00:46:45.160Z,19.22
2022-09-15T00:49:24.566Z,19.17
2022-09-15T00:51:56.461Z,19.21
2022-09-15T00:54:31.775Z,19.12
2022-09-15T00:57:02.883Z,19.04
2022-09-15T00:59:32.901Z,19.02
2022-09-15T01:02:04.354Z,19.21
2022-09-15T01:04:31.130Z,19.20
2022-09-15T01:07:02.920Z,19.21
2022-09-15T01:09:41.647Z,19.25
2022-09-15T01:12:08.200Z,19.34
2022-09-15T01:14:34.832Z,19.31
2022-09-15T01:17:07.288Z,19.31
2022-09-15T01:19:39.924Z,19.32
2022-09-15T01:22:40.873Z,19.38
2022-09-15T01:25:19.102Z,19.45
2022-09-15T01:27:59.327Z,19.44
2022-09-15T01:30:26.398Z,19.39
2022-09-15T01:33:07.918Z,19.38
2022-09-15T01:35:59.816Z,19.35
2022-09-15T01:38:41.626Z,19.34
2022-09-15T01:41:25.470Z,19.31
2022-09-15T01:44:12.402Z,19.25
2022-09-15T01:46:52.421Z,19.26
2022-09-15T01:49:22.609Z,19.22
2022-09-15T01:51:50.761Z,19.17
2022-09-15T01:54:22.321Z,19.18
2022-09-15T01:56:48.891Z,19.19
2022-09-15T01:59:15.806Z,19.15
2022-09-15T02:01:51.024Z,19.17
2022-09-15T02:04:25.501Z,19.24
2022-09-15T02:07:32.000Z,19.27
2022-09-15T02:10:04.358Z,19.25
2022-09-15T02:12:39.589Z,19.25
2022-09-15T02:15:12.071Z,19.20
2022-09-15T02:17:45.688Z,19.17
2022-09-15T02:20:25.676Z,19.29
2022-09-15T02:22:57.284Z,19.42
2022-09-15T02:25:34.544Z,19.33
2022-09-15T02:28:08.335Z,19.35
2022-09-15T02:30:41.215Z,19.36
2022-09-15T02:33:14.162Z,19.37
2022-09-15T02:35:41.904Z,19.31
2022-09-15T02:38:10.593Z,19.38
2022-09-15T02:40:41.332Z,19.38
2022-09-15T02:43:12.355Z,19.28
2022-09-15T02:45:38.958Z,19.26
2022-09-15T02:48:05.903Z,19.28
2022-09-15T02:50:32.502Z,19.29
2022-09-15T02:52:59.077Z,19.35
2022-09-15T02:55:29.101Z,19.25
2022-09-15T02:57:58.820Z,19.25
2022-09-15T03:00:27.115Z,19.28
2022-09-15T03:02:54.836Z,19.26
2022-09-15T03:05:27.620Z,19.25
2022-09-15T03:07:55.035Z,19.26
2022-09-15T03:10:23.939Z,19.21
2022-09-15T03:12:52.858Z,19.18
2022-09-15T03:15:22.366Z,19.18
2022-09-15T03:17:49.501Z,19.11
2022-09-15T03:20:22.215Z,19.10
2022-09-15T03:22:49.643Z,18.99
2022-09-15T03:25:17.777Z,19.03
2022-09-15T03:27:44.666Z,19.05
2022-09-15T03:30:12.491Z,18.91
2022-09-15T03:32:39.140Z,18.93
2022-09-15T03:35:06.932Z,18.92
2022-09-15T03:37:33.906Z,18.97
2022-09-15T03:40:00.616Z,18.96
2022-09-15T03:42:27.228Z,19.01
2022-09-15T03:44:53.799Z,19.08
2022-09-15T03:47:20.355Z,19.00
2022-09-15T03:49:46.887Z,18.97
2022-09-15T03:52:13.859Z,18.96
2022-09-15T03:54:40.475Z,18.92
2022-09-15T03:57:07.089Z,19.00
2022-09-15T03:59:33.697Z,18.94
2022-09-15T04:02:00.434Z,19.00
2022-09-15T04:04:27.409Z,18.90
2022-09-15T04:06:53.949Z,18.82
2022-09-15T04:09:21.517Z,18.87
2022-09-15T04:11:48.331Z,18.86
2022-09-15T04:14:14.931Z,18.71
2022-09-15T04:16:41.569Z,18.53
2022-09-15T04:19:08.373Z,18.44
2022-09-15T04:21:35.091Z,18.53
2022-09-15T04:24:01.940Z,18.40
2022-09-15T04:26:33.072Z,18.44
2022-09-15T04:29:04.283Z,18.34
2022-09-15T04:31:33.089Z,18.37
2022-09-15T04:33:59.951Z,18.47
2022-09-15T04:36:28.415Z,18.63
2022-09-15T04:38:56.024Z,18.69
2022-09-15T04:41:23.074Z,18.70
2022-09-15T04:43:49.716Z,18.77
2022-09-15T04:46:16.947Z,18.79
2022-09-15T04:48:45.491Z,18.82
2022-09-15T04:51:15.383Z,18.85
2022-09-15T04:53:42.194Z,18.93
2022-09-15T04:56:20.875Z,18.99
2022-09-15T04:59:03.541Z,19.13
2022-09-15T05:01:34.175Z,19.09
2022-09-15T05:04:01.878Z,19.12
2022-09-15T05:06:28.443Z,19.06
2022-09-15T05:08:57.154Z,19.25
2022-09-15T05:11:24.935Z,19.26
2022-09-15T05:13:52.069Z,19.43
2022-09-15T05:16:21.618Z,19.58
2022-09-15T05:18:50.425Z,19.67
2022-09-15T05:21:19.215Z,19.74
2022-09-15T05:23:46.452Z,19.78
2022-09-15T05:26:15.431Z,19.76
2022-09-15T05:28:42.300Z,19.76
2022-09-15T05:31:17.931Z,19.82
2022-09-15T05:33:45.527Z,19.68
2022-09-15T05:36:14.327Z,19.60
2022-09-15T05:38:41.635Z,19.72
2022-09-15T05:41:11.441Z,19.68
2022-09-15T05:43:39.493Z,19.65
2022-09-15T05:46:07.620Z,19.65
2022-09-15T05:48:34.737Z,19.66
2022-09-15T05:51:01.625Z,19.74
2022-09-15T05:53:28.913Z,19.66
2022-09-15T05:56:00.956Z,19.72
2022-09-15T05:58:27.745Z,19.78
2022-09-15T06:00:54.930Z,19.85
2022-09-15T06:03:26.411Z,19.99
2022-09-15T06:06:03.718Z,20.16
2022-09-15T06:08:32.792Z,20.40
2022-09-15T06:11:08.015Z,20.42
2022-09-15T06:13:35.126Z,20.68
2022-09-15T06:16:07.094Z,21.41
2022-09-15T06:18:37.159Z,22.78
2022-09-15T06:21:16.007Z,23.27
2022-09-15T06:23:46.040Z,23.62
2022-09-15T06:26:20.203Z,22.83
2022-09-15T06:28:52.667Z,22.56
2022-09-15T06:31:19.896Z,21.87
2022-09-15T06:33:51.166Z,21.93
2022-09-15T06:36:20.118Z,21.24
2022-09-15T06:38:47.533Z,21.36
2022-09-15T06:41:15.845Z,21.05
2022-09-15T06:43:42.891Z,20.98
2022-09-15T06:46:14.921Z,21.03
2022-09-15T06:48:44.302Z,21.02
2022-09-15T06:51:15.524Z,21.26
2022-09-15T06:53:42.116Z,21.15
2022-09-15T06:56:12.856Z,21.09
2022-09-15T06:58:40.902Z,21.02
2022-09-15T07:01:18.661Z,21.05
2022-09-15T07:03:45.374Z,21.37
2022-09-15T07:06:12.239Z,21.58
2022-09-15T07:08:40.113Z,21.99
2022-09-15T07:11:08.620Z,22.32
2022-09-15T07:13:36.011Z,22.52
2022-09-15T07:16:04.708Z,22.34
2022-09-15T07:18:32.503Z,22.38
2022-09-15T07:21:05.034Z,22.48
2022-09-15T07:23:32.598Z,22.16
2022-09-15T07:26:11.673Z,22.22
2022-09-15T07:28:39.589Z,22.58
2022-09-15T07:31:07.203Z,22.66
2022-09-15T07:33:35.283Z,22.77
2022-09-15T07:36:03.059Z,22.75
2022-09-15T07:38:29.618Z,23.56
2022-09-15T07:41:03.119Z,23.97
2022-09-15T07:43:29.721Z,24.12
2022-09-15T07:46:01.009Z,23.96
2022-09-15T07:48:27.998Z,23.53
2022-09-15T07:50:54.829Z,23.87
2022-09-15T07:53:21.401Z,23.77
2022-09-15T07:55:54.981Z,24.36
2022-09-15T07:58:23.522Z,24.63
2022-09-15T08:00:50.162Z,24.28
2022-09-15T08:03:17.034Z,24.06
2022-09-15T08:05:45.847Z,23.64
2022-09-15T08:08:12.706Z,24.05
2022-09-15T08:10:41.252Z,23.98
2022-09-15T08:13:08.480Z,24.09
2022-09-15T08:15:38.830Z,24.14
2022-09-15T08:18:06.290Z,24.02
2022-09-15T08:20:34.692Z,24.02
2022-09-15T08:23:01.978Z,23.93
2022-09-15T08:25:28.788Z,23.92
2022-09-15T08:27:56.393Z,24.35
2022-09-15T08:30:23.662Z,24.33
2022-09-15T08:32:50.808Z,24.24
2022-09-15T08:35:17.919Z,24.36
2022-09-15T08:37:44.501Z,24.32
2022-09-15T08:40:22.312Z,24.39
2022-09-15T08:42:53.927Z,24.88
2022-09-15T08:45:28.623Z,25.28
2022-09-15T08:48:00.267Z,25.67
2022-09-15T08:50:35.698Z,25.85
2022-09-15T08:53:06.917Z,26.35
2022-09-15T08:55:36.716Z,26.07
2022-09-15T08:58:04.589Z,25.92
2022-09-15T09:00:32.133Z,26.05
2022-09-15T09:03:07.661Z,26.48
2022-09-15T09:05:34.424Z,26.80
2022-09-15T09:08:06.815Z,27.21
2022-09-15T09:10:48.180Z,26.88
2022-09-15T09:13:48.851Z,26.68
2022-09-15T09:16:30.610Z,26.36
2022-09-15T09:19:28.937Z,26.74
2022-09-15T09:22:06.795Z,26.97
2022-09-15T09:24:56.779Z,27.39
2022-09-15T09:27:27.219Z,26.97
2022-09-15T09:30:19.770Z,27.71
2022-09-15T09:33:25.885Z,27.67
2022-09-15T09:35:53.304Z,27.33
2022-09-15T09:38:22.758Z,27.43
2022-09-15T09:40:50.256Z,27.09
2022-09-15T09:43:17.038Z,27.69
2022-09-15T09:45:43.997Z,28.32
2022-09-15T09:48:30.004Z,28.69
2022-09-15T09:50:56.985Z,28.51
2022-09-15T09:53:32.996Z,28.33
2022-09-15T09:56:11.834Z,28.65
2022-09-15T09:58:38.710Z,28.99
2022-09-15T10:01:17.621Z,29.19
2022-09-15T10:03:45.324Z,29.29
2022-09-15T10:06:16.862Z,28.46
2022-09-15T10:08:57.498Z,28.10
2022-09-15T10:11:52.842Z,28.26
2022-09-15T10:14:19.861Z,28.31
2022-09-15T10:17:00.507Z,28.19
2022-09-15T10:19:32.674Z,27.88
2022-09-15T10:22:01.335Z,27.91
2022-09-15T10:24:27.806Z,27.87
2022-09-15T10:27:34.027Z,28.59
2022-09-15T10:30:12.722Z,29.17
2022-09-15T10:32:40.276Z,29.73
2022-09-15T10:35:11.525Z,29.43
2022-09-15T10:38:00.227Z,29.91
2022-09-15T10:40:34.526Z,30.00
2022-09-15T10:43:10.876Z,29.47
2022-09-15T10:45:47.010Z,29.23
2022-09-15T10:48:25.816Z,28.77
2022-09-15T10:51:07.574Z,28.53
2022-09-15T10:53:49.446Z,28.45
2022-09-15T10:56:22.201Z,28.85
2022-09-15T10:59:07.412Z,27.79
2022-09-15T11:02:23.390Z,27.92
2022-09-15T11:04:55.781Z,28.27
2022-09-15T11:07:44.803Z,28.39
2022-09-15T11:10:20.539Z,27.94
2022-09-15T11:12:53.285Z,27.96
2022-09-15T11:15:38.085Z,27.79
2022-09-15T11:18:19.746Z,27.78
2022-09-15T11:21:05.148Z,27.28
2022-09-15T11:23:40.541Z,27.62
2022-09-15T11:26:17.511Z,27.23
2022-09-15T11:28:51.980Z,27.08
2022-09-15T11:31:34.310Z,26.98
2022-09-15T11:34:11.306Z,26.69
2022-09-15T11:36:45.033Z,26.52
2022-09-15T11:39:24.429Z,26.31
2022-09-15T11:42:01.111Z,26.37
2022-09-15T11:44:34.106Z,26.18
2022-09-15T11:47:22.113Z,26.08
2022-09-15T11:50:09.021Z,26.19
2022-09-15T11:52:40.810Z,25.97
2022-09-15T11:55:15.765Z,25.99
2022-09-15T11:57:51.515Z,26.27
2022-09-15T12:00:19.424Z,26.47
2022-09-15T12:03:17.146Z,26.72
2022-09-15T12:05:50.690Z,26.85
2022-09-15T12:08:27.693Z,26.93
2022-09-15T12:10:58.996Z,27.24
2022-09-15T12:13:26.997Z,27.23
2022-09-15T12:15:54.520Z,27.27
2022-09-15T12:18:39.287Z,27.52
2022-09-15T12:21:23.744Z,27.79
2022-09-15T12:23:56.160Z,27.53
2022-09-15T12:26:26.138Z,27.44
2022-09-15T12:28:57.307Z,27.31
2022-09-15T12:31:23.935Z,26.93
2022-09-15T12:33:54.091Z,26.69
2022-09-15T12:36:34.761Z,26.62
2022-09-15T12:39:04.633Z,26.54
2022-09-15T12:41:32.141Z,26.46
2022-09-15T12:44:05.324Z,26.52
2022-09-15T12:46:33.127Z,26.27
2022-09-15T12:49:03.474Z,26.17
2022-09-15T12:51:30.683Z,26.12
2022-09-15T12:54:04.774Z,26.20
2022-09-15T12:56:33.779Z,26.19
2022-09-15T12:59:06.820Z,26.16
2022-09-15T13:01:53.630Z,25.84
2022-09-15T13:04:25.388Z,25.62
2022-09-15T13:07:20.323Z,25.18
2022-09-15T13:10:05.552Z,24.99
2022-09-15T13:12:39.761Z,24.76
2022-09-15T13:15:13.278Z,24.63
2022-09-15T13:17:45.251Z,24.66
2022-09-15T13:20:19.970Z,24.39
2022-09-15T13:22:51.605Z,22.92
2022-09-15T13:25:26.216Z,21.91
2022-09-15T13:28:01.606Z,21.14
2022-09-15T13:30:40.334Z,20.36
2022-09-15T13:38:04.062Z,20.74
2022-09-15T13:39:27.001Z,21.04
2022-09-15T13:42:17.859Z,21.25
2022-09-15T13:44:44.352Z,21.38
2022-09-15T13:47:29.447Z,21.48
2022-09-15T13:50:21.521Z,21.48
2022-09-15T13:52:53.378Z,21.35
2022-09-15T13:55:25.346Z,21.25
2022-09-15T14:01:00.617Z,21.39
2022-09-15T14:03:37.354Z,21.49
2022-09-15T14:06:22.946Z,21.76
2022-09-15T14:08:54.369Z,21.71
2022-09-15T14:11:28.271Z,21.75
2022-09-15T14:13:56.782Z,21.98
2022-09-15T14:16:34.627Z,21.87
2022-09-15T14:19:04.139Z,21.81
2022-09-15T14:21:33.598Z,21.69
2022-09-15T14:24:06.007Z,21.63
2022-09-15T14:26:35.795Z,21.64
2022-09-15T14:29:05.599Z,21.59
2022-09-15T14:31:39.385Z,21.23
2022-09-15T14:34:23.505Z,21.18
2022-09-15T14:37:12.728Z,20.99
2022-09-15T14:39:40.392Z,20.83
2022-09-15T14:42:22.636Z,20.56
2022-09-15T14:47:43.314Z,20.32
2022-09-15T14:50:20.098Z,20.31
2022-09-15T14:52:51.931Z,20.26
2022-09-15T14:55:28.222Z,19.93
2022-09-15T14:58:03.086Z,19.98
2022-09-15T15:00:38.700Z,19.95
2022-09-15T15:03:17.579Z,19.47
2022-09-15T15:06:02.170Z,18.86
2022-09-15T15:08:31.505Z,18.69
2022-09-15T15:10:59.384Z,18.40
2022-09-15T15:13:26.805Z,18.24
2022-09-15T15:15:53.822Z,18.17
2022-09-15T15:18:38.529Z,18.04
2022-09-15T15:21:07.014Z,18.09
2022-09-15T15:23:33.679Z,18.09
2022-09-15T15:26:35.969Z,18.00
2022-09-15T15:29:02.670Z,17.74
2022-09-15T15:31:29.972Z,17.82
2022-09-15T15:34:05.461Z,17.84
2022-09-15T15:36:34.626Z,17.76
2022-09-15T15:39:06.726Z,17.82
2022-09-15T15:41:42.770Z,17.87
2022-09-15T15:44:15.596Z,17.95
2022-09-15T15:46:59.911Z,17.94
2022-09-15T15:49:29.175Z,18.00
2022-09-15T15:51:58.240Z,18.09
2022-09-15T15:54:25.470Z,17.96
2022-09-15T15:56:53.168Z,18.03
2022-09-15T15:59:19.983Z,18.18
2022-09-15T16:01:52.866Z,18.13
2022-09-15T16:04:19.826Z,18.19
2022-09-15T16:06:46.609Z,18.32
2022-09-15T16:09:18.791Z,18.18
2022-09-15T16:11:45.639Z,17.89
2022-09-15T16:14:13.674Z,17.85
2022-09-15T16:16:40.895Z,17.95
2022-09-15T16:19:08.466Z,17.96
2022-09-15T16:21:39.112Z,17.81
2022-09-15T16:24:10.370Z,17.98
2022-09-15T16:26:37.813Z,17.95
2022-09-15T16:29:04.350Z,18.00
2022-09-15T16:31:33.370Z,18.01
2022-09-15T16:34:00.574Z,17.91
2022-09-15T16:36:27.412Z,17.90
2022-09-15T16:38:54.140Z,17.97
2022-09-15T16:41:28.484Z,17.90
2022-09-15T16:43:57.843Z,17.78
2022-09-15T16:46:25.189Z,17.76
2022-09-15T16:48:51.866Z,17.80
2022-09-15T16:51:28.413Z,17.66
2022-09-15T16:53:57.386Z,17.70
2022-09-15T16:56:23.943Z,17.58
2022-09-15T16:58:54.775Z,17.63
2022-09-15T17:01:25.229Z,17.47
2022-09-15T17:03:51.821Z,17.46
2022-09-15T17:06:18.746Z,17.55
2022-09-15T17:08:45.838Z,17.43
2022-09-15T17:11:16.654Z,17.43
2022-09-15T17:13:44.383Z,17.30
2022-09-15T17:16:13.210Z,17.32
2022-09-15T17:18:39.839Z,17.32
2022-09-15T17:21:07.384Z,17.30
2022-09-15T17:23:43.192Z,17.26
2022-09-15T17:26:13.628Z,17.26
2022-09-15T17:28:41.104Z,17.21
2022-09-15T17:31:20.853Z,17.08
2022-09-15T17:33:48.631Z,17.02
2022-09-15T17:36:15.889Z,17.08
2022-09-15T17:38:42.985Z,17.10
2022-09-15T17:41:16.979Z,17.10
2022-09-15T17:43:44.006Z,17.11
2022-09-15T17:46:10.665Z,17.10
2022-09-15T17:48:38.924Z,17.03
2022-09-15T17:51:07.147Z,17.00
2022-09-15T17:53:34.207Z,16.86
2022-09-15T17:56:00.871Z,16.93
2022-09-15T17:58:29.888Z,16.94
2022-09-15T18:00:59.847Z,16.92
2022-09-15T18:03:34.028Z,16.85
2022-09-15T18:06:04.261Z,16.85
2022-09-15T18:08:32.839Z,16.82
2022-09-15T18:11:00.294Z,16.76
2022-09-15T18:13:28.181Z,16.74
2022-09-15T18:15:55.088Z,16.77
2022-09-15T18:18:27.511Z,16.74
2022-09-15T18:20:57.735Z,16.75
2022-09-15T18:23:26.788Z,16.73
2022-09-15T18:25:53.323Z,16.76
2022-09-15T18:28:20.456Z,16.73
2022-09-15T18:30:48.868Z,16.77
2022-09-15T18:33:15.417Z,16.81
2022-09-15T18:35:42.917Z,16.84
2022-09-15T18:38:10.043Z,16.84
2022-09-15T18:40:37.035Z,16.87
2022-09-15T18:43:03.871Z,16.90
2022-09-15T18:45:30.405Z,16.81
2022-09-15T18:47:57.144Z,16.87
2022-09-15T18:50:24.365Z,16.80
2022-09-15T18:52:51.061Z,16.85
2022-09-15T18:55:20.288Z,16.87
2022-09-15T18:57:48.214Z,16.82
2022-09-15T19:00:17.784Z,16.85
2022-09-15T19:02:44.503Z,16.77
2022-09-15T19:05:12.222Z,16.71
2022-09-15T19:07:39.126Z,16.76
2022-09-15T19:10:07.290Z,16.61
2022-09-15T19:12:36.262Z,16.57
2022-09-15T19:15:04.625Z,16.64
2022-09-15T19:17:31.264Z,16.67
2022-09-15T19:19:58.184Z,16.72
2022-09-15T19:22:24.801Z,16.63
2022-09-15T19:24:51.401Z,16.72
2022-09-15T19:27:18.023Z,16.74
2022-09-15T19:29:44.668Z,16.77
2022-09-15T19:32:13.301Z,16.75
2022-09-15T19:34:42.134Z,16.75
2022-09-15T19:37:14.140Z,16.83
2022-09-15T19:39:43.693Z,16.79
2022-09-15T19:42:11.798Z,16.78
2022-09-15T19:44:38.535Z,16.86
2022-09-15T19:47:05.102Z,16.83
2022-09-15T19:49:31.671Z,16.74
2022-09-15T19:51:58.225Z,16.76
2022-09-15T19:54:26.893Z,16.73
2022-09-15T19:56:53.607Z,16.71
2022-09-15T19:59:20.721Z,16.72
2022-09-15T20:01:48.134Z,16.74
2022-09-15T20:04:15.519Z,16.72
2022-09-15T20:06:42.448Z,16.71
2022-09-15T20:09:10.217Z,16.70
2022-09-15T20:11:36.960Z,16.65
2022-09-15T20:14:04.359Z,16.71
2022-09-15T20:16:30.995Z,16.78
2022-09-15T20:18:57.743Z,16.86
2022-09-15T20:21:50.387Z,16.94
2022-09-15T20:24:18.808Z,17.05
2022-09-15T20:26:45.353Z,16.97
2022-09-15T20:29:12.005Z,17.01
2022-09-15T20:31:38.578Z,17.00
2022-09-15T20:34:05.281Z,17.03
2022-09-15T20:36:36.037Z,16.92
2022-09-15T20:39:04.908Z,16.97
2022-09-15T20:41:34.402Z,16.93
2022-09-15T20:44:01.153Z,16.94
2022-09-15T20:46:29.399Z,16.94
2022-09-15T20:48:55.993Z,16.86
2022-09-15T20:51:29.491Z,16.86
2022-09-15T20:53:57.608Z,16.93
2022-09-15T20:56:26.614Z,16.87
2022-09-15T20:58:54.998Z,16.80
2022-09-15T21:01:24.057Z,16.83
2022-09-15T21:03:51.135Z,16.84
2022-09-15T21:06:20.443Z,16.84
2022-09-15T21:08:48.527Z,16.80
2022-09-15T21:11:16.502Z,16.81
2022-09-15T21:13:44.205Z,16.82
2022-09-15T21:16:15.128Z,16.86
2022-09-15T21:18:43.788Z,16.81
2022-09-15T21:21:25.203Z,16.85
2022-09-15T21:23:53.904Z,16.79
2022-09-15T21:26:23.296Z,16.82
2022-09-15T21:28:50.307Z,16.87
2022-09-15T21:31:22.141Z,16.75
2022-09-15T21:33:50.068Z,16.73
2022-09-15T21:36:31.282Z,16.69
2022-09-15T21:38:59.243Z,16.74
2022-09-15T21:41:29.733Z,16.79
2022-09-15T21:43:58.373Z,16.79
2022-09-15T21:46:27.810Z,16.79
2022-09-15T21:48:56.121Z,16.74
2022-09-15T21:51:24.851Z,16.71
2022-09-15T21:53:53.314Z,16.67
2022-09-15T21:56:20.155Z,16.74
2022-09-15T21:58:46.766Z,16.67
2022-09-15T22:01:14.570Z,16.70
2022-09-15T22:03:42.423Z,16.70
2022-09-15T22:06:13.161Z,16.65
2022-09-15T22:08:40.398Z,16.69
2022-09-15T22:11:08.337Z,16.67
2022-09-15T22:13:40.909Z,16.68
2022-09-15T22:16:11.546Z,16.69
2022-09-15T22:18:39.940Z,16.61
2022-09-15T22:21:20.191Z,16.65
2022-09-15T22:23:47.910Z,16.56
2022-09-15T22:26:17.486Z,16.58
2022-09-15T22:28:44.145Z,16.57
2022-09-15T22:31:15.464Z,16.54
2022-09-15T22:33:42.462Z,16.53
2022-09-15T22:36:11.177Z,16.51
2022-09-15T22:38:38.269Z,16.49
2022-09-15T22:41:07.359Z,16.45
2022-09-15T22:43:33.970Z,16.41
2022-09-15T22:46:00.882Z,16.37
2022-09-15T22:48:28.258Z,16.38
2022-09-15T22:50:54.925Z,16.42
2022-09-15T22:53:23.396Z,16.42
2022-09-15T22:55:50.688Z,16.40
2022-09-15T22:58:17.502Z,16.40
2022-09-15T23:00:44.089Z,16.48
2022-09-15T23:03:11.691Z,16.44
2022-09-15T23:05:38.286Z,16.48
2022-09-15T23:08:04.942Z,16.46
2022-09-15T23:10:32.310Z,16.44
2022-09-15T23:12:59.355Z,16.51
2022-09-15T23:15:26.038Z,16.57
2022-09-15T23:17:52.621Z,16.50
2022-09-15T23:20:19.161Z,16.50
2022-09-15T23:22:45.702Z,16.55
2022-09-15T23:25:12.243Z,16.66
2022-09-15T23:27:38.771Z,16.66
2022-09-15T23:30:05.714Z,16.62
2022-09-15T23:32:32.325Z,16.69
2022-09-15T23:34:58.919Z,16.66
2022-09-15T23:37:25.491Z,16.59
2022-09-15T23:39:52.279Z,16.59
2022-09-15T23:42:19.191Z,16.59
2022-09-15T23:44:45.924Z,16.58
2022-09-15T23:47:12.468Z,16.52
2022-09-15T23:49:39.011Z,16.49
2022-09-15T23:52:05.611Z,16.43
2022-09-15T23:54:32.155Z,16.42
2022-09-15T23:56:58.805Z,16.37
2022-09-15T23:59:25.403Z,16.36
